16 mei 2022

Tijd Code Weer Temp. Zicht Wolken Wind METAR/SPECI
16:25
V
24 °C 10 km+ - 260°   260° 9 kt METAR EHGG 161425Z AUTO 26009KT 230V300 9999 NSC 24/13 Q1014 NOSIG
15:55
V
23 °C 10 km+ - 230°   230° 7 kt METAR EHGG 161355Z AUTO 23007KT 190V270 9999 NSC 23/13 Q1014 BECMG 25010KT
15:25
V
24 °C 10 km+ - 200°   200° 6 kt METAR EHGG 161325Z AUTO 20006KT 140V240 9999 NSC 24/13 Q1014 BECMG 25010KT
14:55
V
23 °C 10 km+ - 170°   170° 4 kt METAR EHGG 161255Z AUTO 17004KT 120V210 9999 NSC 23/12 Q1014 REDZ NOSIG
14:25
V
23 °C 10 km+ - 200°   200° 7 kt METAR EHGG 161225Z AUTO 20007KT 170V230 9999 FEW040CB 23/13 Q1014 BECMG CAVOK
13:55
V
23 °C 10 km+ - 170°   170° 8 kt METAR EHGG 161155Z AUTO 17008KT 130V210 9999 -RA FEW045 FEW048CB 23/11 Q1014 BECMG CAVOK
13:25
V
23 °C 10 km+ - 120°   120° 6 kt METAR EHGG 161125Z AUTO 12006KT 070V200 9999 NSC 23/10 Q1014 NOSIG
12:55
V
24 °C 10 km+ - 150°   150° 8 kt METAR EHGG 161055Z AUTO 15008KT 090V210 9999 NSC 24/09 Q1014 NOSIG
12:25
V
24 °C 10 km+ - 110°   110° 8 kt METAR EHGG 161025Z AUTO 11008KT 070V160 9999 NSC 24/11 Q1014 NOSIG
11:55
V
23 °C 10 km+ - 130°   130° 9 kt METAR EHGG 160955Z AUTO 13009KT 070V180 9999 NSC 23/10 Q1014 NOSIG
11:25
V
21 °C 10 km+ - 110°   110° 7 kt METAR EHGG 160925Z AUTO 11007KT 050V160 9999 NSC 21/09 Q1014 NOSIG
10:55
V
21 °C 10 km+ - 100°   100° 8 kt METAR EHGG 160855Z AUTO 10008KT 060V160 9999 NSC 21/10 Q1014 NOSIG
10:25
V
20 °C 10 km+ - 100°   100° 10 kt METAR EHGG 160825Z AUTO 10010KT 050V140 9999 NSC 20/09 Q1014 NOSIG
09:55
V
18 °C 10 km+ - 100°   100° 10 kt METAR EHGG 160755Z AUTO 10010KT 050V150 9999 NSC 18/09 Q1014 NOSIG
09:25
V
17 °C 10 km+ - 100°   100° 10 kt METAR EHGG 160725Z AUTO 10010KT 070V150 9999 NSC 17/09 Q1014 NOSIG
08:55
V
16 °C 10 km+ - 100°   100° 8 kt METAR EHGG 160655Z AUTO 10008KT 060V140 9999 NSC 16/09 Q1014 NOSIG
08:25
V
14 °C 10 km+ - 100°   100° 9 kt METAR EHGG 160625Z AUTO 10009KT 060V130 9999 NSC 14/08 Q1014 NOSIG
07:55
V
14 °C 10 km+ - 090°   090° 9 kt METAR EHGG 160555Z AUTO 09009KT 060V120 9999 NSC 14/08 Q1014 NOSIG
07:25
V
13 °C 10 km+ - 090°   090° 8 kt METAR EHGG 160525Z AUTO 09008KT 9999 NSC 13/07 Q1014 NOSIG
06:55
V
12 °C 10 km+ - 090°   090° 9 kt METAR EHGG 160455Z AUTO 09009KT 9999 NSC 12/07 Q1014 NOSIG
06:25
V
12 °C 10 km+ - 090°   090° 9 kt METAR EHGG 160425Z AUTO 09009KT 9999 NSC 12/07 Q1014 NOSIG
05:55
V
11 °C 10 km+ - 080°   080° 9 kt METAR EHGG 160355Z AUTO 08009KT 9999 NSC 11/07 Q1015
05:25
V
11 °C 10 km+ - 080°   080° 9 kt METAR EHGG 160325Z AUTO 08009KT 9999 NSC 11/07 Q1015
04:55
V
12 °C 10 km+ - 080°   080° 9 kt METAR EHGG 160255Z AUTO 08009KT 9999 NSC 12/07 Q1015
04:25
V
12 °C 10 km+ - 080°   080° 10 kt METAR EHGG 160225Z AUTO 08010KT 050V110 9999 NSC 12/07 Q1015
03:55
V
12 °C 10 km+ - 070°   070° 9 kt METAR EHGG 160155Z AUTO 07009KT 9999 NSC 12/08 Q1016
03:25
V
12 °C 10 km+ - 080°   080° 8 kt METAR EHGG 160125Z AUTO 08008KT 050V110 9999 NSC 12/08 Q1016
02:55
V
12 °C 10 km+ - 080°   080° 8 kt METAR EHGG 160055Z AUTO 08008KT 9999 NSC 12/09 Q1016
02:25
V
12 °C 10 km+ - 080°   080° 7 kt METAR EHGG 160025Z AUTO 08007KT 9999 NSC 12/09 Q1016
01:55
V
11 °C 10 km+ - 070°   070° 6 kt METAR EHGG 152355Z AUTO 07006KT 9999 NSC 11/09 Q1017
01:25
V
11 °C 10 km+ - 070°   070° 4 kt METAR EHGG 152325Z AUTO 07004KT 9999 NSC 11/09 Q1017
00:55
V
10 °C 10 km+ - 060°   060° 4 kt METAR EHGG 152255Z AUTO 06004KT 9999 NSC 10/09 Q1017
00:25
V
11 °C 10 km+ - 080°   080° 4 kt METAR EHGG 152225Z AUTO 08004KT 9999 NSC 11/10 Q1017

15 mei 2022

Tijd Code Weer Temp. Zicht Wolken Wind METAR/SPECI
23:55
V
12 °C 10 km+ - 070°   070° 6 kt METAR EHGG 152155Z AUTO 07006KT 040V100 9999 NSC 12/10 Q1017
23:25
V
13 °C 10 km+ - 060°   060° 8 kt METAR EHGG 152125Z AUTO 06008KT 9999 NSC 13/10 Q1018
22:55
V
13 °C 10 km+ - 060°   060° 10 kt METAR EHGG 152055Z AUTO 06010KT 9999 NCD 13/10 Q1018 NOSIG
22:25
V
14 °C 10 km+ - 060°   060° 10 kt METAR EHGG 152025Z AUTO 06010KT 9999 NCD 14/10 Q1018 NOSIG
21:55
V
15 °C 10 km+ - 060°   060° 11 kt METAR EHGG 151955Z AUTO 06011KT 9999 NCD 15/10 Q1018 NOSIG
21:25
V
16 °C 10 km+ - 060°   060° 11 kt METAR EHGG 151925Z AUTO 06011KT 9999 NCD 16/11 Q1017 NOSIG
20:55
V
17 °C 10 km+ - 050°   050° 12 kt METAR EHGG 151855Z AUTO 05012KT 9999 NSC 17/11 Q1017 NOSIG
20:25
V
18 °C 10 km+ - 050°   050° 11 kt METAR EHGG 151825Z AUTO 05011KT 020V080 9999 NSC 18/12 Q1017 NOSIG
19:55
V
19 °C 10 km+ - 030°   030° 10 kt METAR EHGG 151755Z AUTO 03010KT 350V060 9999 NSC 19/12 Q1017 NOSIG
19:25
V
19 °C 10 km+ - 030°   030° 12 kt METAR EHGG 151725Z AUTO 03012KT 360V060 9999 NSC 19/12 Q1018 NOSIG
18:55
V
21 °C 10 km+ - 050°   050° 11 kt METAR EHGG 151655Z AUTO 05011KT 360V080 9999 NSC 21/08 Q1018 NOSIG
18:25
V
21 °C 10 km+ - 050°   050° 11 kt METAR EHGG 151625Z AUTO 05011KT 9999 NSC 21/07 Q1018 NOSIG
17:55
V
21 °C 10 km+ - 040°   040° 10 kt METAR EHGG 151555Z AUTO 04010KT 010V070 9999 NSC 21/07 Q1018 NOSIG
17:25
V
21 °C 10 km+ - 050°   050° 10 kt METAR EHGG 151525Z AUTO 05010KT 010V100 9999 NSC 21/09 Q1018 NOSIG
16:55
V
21 °C 10 km+ - 050°   050° 10 kt METAR EHGG 151455Z AUTO 05010KT 010V090 9999 NSC 21/07 Q1019 NOSIG
16:25
V
21 °C 10 km+ - 050°   050° 8 kt METAR EHGG 151425Z AUTO 05008KT 010V100 9999 NSC 21/07 Q1019 NOSIG
15:55
V
21 °C 10 km+ - 040°   040° 9 kt METAR EHGG 151355Z AUTO 04009KT 010V080 9999 NSC 21/08 Q1019 NOSIG
15:25
V
21 °C 10 km+ - 050°   050° 10 kt METAR EHGG 151325Z AUTO 05010KT 010V100 9999 NCD 21/08 Q1020 NOSIG
14:55
V
21 °C 10 km+ - 060°   060° 9 kt METAR EHGG 151255Z AUTO 06009KT 340V120 9999 NCD 21/07 Q1020 NOSIG
14:25
V
21 °C 10 km+ - 080°   080° 7 kt METAR EHGG 151225Z AUTO 08007KT 040V120 9999 NSC 21/09 Q1020 NOSIG
13:55
V
20 °C 10 km+ - 050°   050° 5 kt METAR EHGG 151155Z AUTO 05005KT 320V130 9999 NSC 20/08 Q1020 NOSIG
13:25
V
20 °C 10 km+ - 060°   060° 8 kt METAR EHGG 151125Z AUTO 06008KT 010V120 9999 NSC 20/09 Q1021 NOSIG
12:55
V
20 °C 10 km+ - 060°   060° 7 kt METAR EHGG 151055Z AUTO 06007KT 360V130 9999 NSC 20/09 Q1021 NOSIG
12:25
V
19 °C 10 km+ - 050°   050° 7 kt METAR EHGG 151025Z AUTO 05007KT 010V120 9999 NCD 19/08 Q1021 NOSIG
11:55
V
18 °C 10 km+ - 060°   060° 6 kt METAR EHGG 150955Z AUTO 06006KT 010V110 9999 NCD 18/08 Q1022 NOSIG
11:25
V
18 °C 10 km+ - 070°   070° 6 kt METAR EHGG 150925Z AUTO 07006KT 030V120 9999 NSC 18/08 Q1022 NOSIG
10:55
V
17 °C 10 km+ - 080°   080° 6 kt METAR EHGG 150855Z AUTO 08006KT 040V150 9999 NCD 17/08 Q1022 NOSIG
10:25
V
16 °C 10 km+ - 070°   070° 6 kt METAR EHGG 150825Z AUTO 07006KT 030V130 9999 NSC 16/09 Q1022 NOSIG
09:55
V
16 °C 10 km+ - 080°   080° 7 kt METAR EHGG 150755Z AUTO 08007KT 050V120 9999 NCD 16/09 Q1022 NOSIG
09:25
V
15 °C 10 km+ - 070°   070° 6 kt METAR EHGG 150725Z AUTO 07006KT 040V100 9999 NCD 15/09 Q1022 NOSIG
08:55
V
14 °C 10 km+ - 090°   090° 6 kt METAR EHGG 150655Z AUTO 09006KT 060V130 9999 NCD 14/09 Q1022 NOSIG
08:25
V
13 °C 10 km+ - 090°   090° 6 kt METAR EHGG 150625Z AUTO 09006KT 060V120 9999 NCD 13/09 Q1022 NOSIG
07:55
V
11 °C 10 km+ - 080°   080° 6 kt METAR EHGG 150555Z AUTO 08006KT 9999 NCD 11/09 Q1022 NOSIG
07:25
V
10 °C 9 km - 080°   080° 6 kt METAR EHGG 150525Z AUTO 08006KT 9000 NCD 10/09 Q1022 NOSIG
06:55
M
8 °C 5 km - 070°   070° 5 kt METAR EHGG 150455Z AUTO 07005KT 5000 NCD 08/08 Q1022 BECMG CAVOK
06:25
M
6 °C 5 km - 070°   070° 3 kt METAR EHGG 150425Z AUTO 07003KT 5000 NSC 06/06 Q1022 BECMG CAVOK
05:55
L
5 °C 550 m - 090°   090° 2 kt METAR EHGG 150355Z AUTO 09002KT 0550 R23/0750D BR NCD 05/05 Q1022 BECMG CAVOK
05:25
L
5 °C 700 m - 060°   060° 4 kt METAR EHGG 150325Z AUTO 06004KT 0700 R23/1600N FG NCD 05/05 Q1022
04:55
I
5 °C 2,9 km - 060°   060° 3 kt METAR EHGG 150255Z AUTO 06003KT 2900 NCD 05/05 Q1022
04:25
M
6 °C 6 km - 060°   060° 3 kt METAR EHGG 150225Z AUTO 06003KT 6000 NCD 06/06 Q1022
03:55
I
5 °C 3,9 km - 060°   060° 3 kt METAR EHGG 150155Z AUTO 06003KT 3900 BR NCD 05/05 Q1022
03:25
I
5 °C 3,4 km - 080°   080° 2 kt METAR EHGG 150125Z AUTO 08002KT 3400 BR NCD 05/05 Q1022
02:55
I
6 °C 4,1 km - 070°   070° 2 kt METAR EHGG 150055Z AUTO 07002KT 4100 BR NCD 06/06 Q1022
02:25
L
5 °C 900 m - 090°   090° 2 kt METAR EHGG 150025Z AUTO 09002KT 0900 R23/1700N FG NCD 05/05 Q1022
01:55
M
6 °C 5 km - 060°   060° 2 kt METAR EHGG 142355Z AUTO 06002KT 5000 NCD 06/05 Q1022
01:25
V
6 °C 10 km+ - 060°   060° 2 kt METAR EHGG 142325Z AUTO 06002KT 9999 NCD 06/06 Q1022
00:55
M
7 °C 5 km - 040°   040° 1 kt METAR EHGG 142255Z AUTO 04001KT 5000 NCD 07/07 Q1022
00:25
V
7 °C 9 km - 040°   040° 2 kt METAR EHGG 142225Z AUTO 04002KT 9000 NCD 07/07 Q1022

14 mei 2022

Tijd Code Weer Temp. Zicht Wolken Wind METAR/SPECI
23:55
V
8 °C 10 km+ - 040°   040° 1 kt METAR EHGG 142155Z AUTO 04001KT 9999 NCD 08/08 Q1022
23:25
V
9 °C 10 km+ - 050°   050° 2 kt METAR EHGG 142125Z AUTO 05002KT 9999 NCD 09/08 Q1022
22:55
V
10 °C 10 km+ - 030°   030° 3 kt METAR EHGG 142055Z AUTO 03003KT 9999 NSC 10/08 Q1022 NOSIG
22:25
V
11 °C 10 km+ - 050°   050° 3 kt METAR EHGG 142025Z AUTO 05003KT 9999 NSC 11/08 Q1022 NOSIG
21:55
V
13 °C 10 km+ - 030°   030° 5 kt METAR EHGG 141955Z AUTO 03005KT 9999 NSC 13/09 Q1021 NOSIG
21:25
V
14 °C 10 km+ - 030°   030° 5 kt METAR EHGG 141925Z AUTO 03005KT 9999 NCD 14/09 Q1021 NOSIG
20:55
V
15 °C 10 km+ - 020°   020° 6 kt METAR EHGG 141855Z AUTO 02006KT 340V050 9999 NSC 15/09 Q1021 NOSIG
20:25
V
16 °C 10 km+ - 350°   350° 5 kt METAR EHGG 141825Z AUTO 35005KT 310V020 9999 NSC 16/09 Q1021 NOSIG
19:55
V
17 °C 10 km+ - 320°   320° 7 kt METAR EHGG 141755Z AUTO 32007KT 280V010 9999 NSC 17/09 Q1021 NOSIG
19:25
V
18 °C 10 km+ - 330°   330° 7 kt METAR EHGG 141725Z AUTO 33007KT 290V020 9999 NCD 18/08 Q1021 NOSIG
18:55
V
18 °C 10 km+ - 340°   340° 7 kt METAR EHGG 141655Z AUTO 34007KT 310V030 9999 SCT038 SCT046 18/08 Q1021 NOSIG
18:25
V
18 °C 10 km+ - 320°   320° 9 kt METAR EHGG 141625Z AUTO 32009KT 280V350 9999 FEW041 18/08 Q1021 NOSIG
17:55
V
18 °C 10 km+ - 300°   300° 9 kt METAR EHGG 141555Z AUTO 30009KT 240V350 9999 NSC 18/08 Q1021 NOSIG
17:25
V
18 °C 10 km+ - 300°   300° 8 kt METAR EHGG 141525Z AUTO 30008KT 260V340 9999 NSC 18/09 Q1021 NOSIG
16:55
V
18 °C 10 km+ 4.800 ft 300°   300° 9 kt METAR EHGG 141455Z AUTO 30009KT 260V330 9999 BKN048 18/08 Q1021 NOSIG
Oudere gegevens

Installeer onze app

Gemakkelijke toegang tot al het luchtvaartweer op je mobiele telefoon en tablet.
Met veel functies die niet op de website beschikbaar zijn, zoals offline ondersteuning en een persoonlijke lijst van vliegvelden.